createdAt,value
2019-03-05T00:00:16.732Z,985.98
2019-03-05T00:01:16.659Z,985.93
2019-03-05T00:02:16.681Z,985.95
2019-03-05T00:03:16.638Z,985.94
2019-03-05T00:04:16.626Z,985.96
2019-03-05T00:05:16.617Z,985.95
2019-03-05T00:06:16.636Z,985.97
2019-03-05T00:07:16.612Z,985.88
2019-03-05T00:08:16.580Z,985.89
2019-03-05T00:09:16.572Z,985.91
2019-03-05T00:10:16.582Z,985.87
2019-03-05T00:11:16.547Z,985.79
2019-03-05T00:12:16.568Z,985.86
2019-03-05T00:13:16.524Z,985.87
2019-03-05T00:14:18.706Z,985.84
2019-03-05T00:15:16.499Z,985.85
2019-03-05T00:16:16.491Z,985.76
2019-03-05T00:17:16.499Z,985.77
2019-03-05T00:18:16.507Z,985.83
2019-03-05T00:19:16.456Z,985.80
2019-03-05T00:20:16.454Z,985.85
2019-03-05T00:21:16.436Z,985.84
2019-03-05T00:22:16.445Z,985.74
2019-03-05T00:23:16.411Z,985.84
2019-03-05T00:24:16.431Z,985.80
2019-03-05T00:25:16.392Z,985.74
2019-03-05T00:26:16.379Z,985.70
2019-03-05T00:27:16.397Z,985.83
2019-03-05T00:28:16.354Z,985.86
2019-03-05T00:29:16.345Z,985.83
2019-03-05T00:30:16.393Z,985.84
2019-03-05T00:31:16.324Z,985.88
2019-03-05T00:32:16.333Z,985.88
2019-03-05T00:33:16.309Z,985.82
2019-03-05T00:34:16.286Z,985.83
2019-03-05T00:35:16.283Z,985.83
2019-03-05T00:36:16.273Z,985.94
2019-03-05T00:37:16.280Z,985.94
2019-03-05T00:38:16.242Z,985.99
2019-03-05T00:39:16.240Z,986.04
2019-03-05T00:40:16.253Z,986.09
2019-03-05T00:41:16.209Z,986.15
2019-03-05T00:42:16.235Z,986.17
2019-03-05T00:43:16.213Z,986.10
2019-03-05T00:44:16.176Z,986.28
2019-03-05T00:45:16.163Z,986.61
2019-03-05T00:46:16.177Z,986.52
2019-03-05T00:47:16.142Z,986.65
2019-03-05T00:48:16.173Z,986.73
2019-03-05T00:49:16.154Z,986.74
2019-03-05T00:50:16.112Z,986.68
2019-03-05T00:51:24.520Z,986.78
2019-03-05T00:52:17.091Z,986.83
2019-03-05T00:53:16.104Z,986.86
2019-03-05T00:54:16.069Z,986.93
2019-03-05T00:55:16.055Z,986.91
2019-03-05T00:56:16.063Z,987.01
2019-03-05T00:57:16.036Z,987.02
2019-03-05T00:58:16.056Z,987.03
2019-03-05T00:59:16.013Z,986.94
2019-03-05T01:00:16.001Z,987.03
2019-03-05T01:01:15.991Z,987.05
2019-03-05T01:02:16.000Z,987.04
2019-03-05T01:03:15.990Z,986.96
2019-03-05T01:04:15.958Z,986.97
2019-03-05T01:05:15.944Z,986.94
2019-03-05T01:06:15.934Z,986.93
2019-03-05T01:07:15.922Z,986.86
2019-03-05T01:08:15.953Z,986.90
2019-03-05T01:09:15.907Z,986.81
2019-03-05T01:10:15.892Z,986.77
2019-03-05T01:11:15.881Z,986.76
2019-03-05T01:12:15.868Z,986.73
2019-03-05T01:13:15.884Z,986.72
2019-03-05T01:14:15.872Z,986.64
2019-03-05T01:15:15.838Z,986.69
2019-03-05T01:16:15.824Z,986.63
2019-03-05T01:17:15.815Z,986.66
2019-03-05T01:18:15.826Z,986.63
2019-03-05T01:19:15.792Z,986.59
2019-03-05T01:20:15.799Z,986.56
2019-03-05T01:21:15.802Z,986.48
2019-03-05T01:22:15.758Z,986.59
2019-03-05T01:23:15.747Z,986.57
2019-03-05T01:24:15.759Z,986.57
2019-03-05T01:25:15.729Z,986.61
2019-03-05T01:26:15.730Z,986.60
2019-03-05T01:27:15.703Z,986.55
2019-03-05T01:28:15.698Z,986.53
2019-03-05T01:29:15.705Z,986.54
2019-03-05T01:30:15.672Z,986.51
2019-03-05T01:31:15.662Z,986.51
2019-03-05T01:32:15.688Z,986.46
2019-03-05T01:33:15.642Z,986.48
2019-03-05T01:34:15.656Z,986.47
2019-03-05T01:35:15.616Z,986.45
2019-03-05T01:36:15.605Z,986.46
2019-03-05T01:37:15.607Z,986.49
2019-03-05T01:38:15.610Z,986.47
2019-03-05T01:39:15.595Z,986.48
2019-03-05T01:40:15.562Z,986.50
2019-03-05T01:41:15.551Z,986.48
2019-03-05T01:42:15.571Z,986.45
2019-03-05T01:43:15.529Z,986.49
2019-03-05T01:44:15.540Z,986.48
2019-03-05T01:45:15.531Z,986.49
2019-03-05T01:46:15.498Z,986.49
2019-03-05T01:47:15.484Z,986.47
2019-03-05T01:48:15.475Z,986.48
2019-03-05T01:49:15.472Z,986.44
2019-03-05T01:50:15.508Z,986.42
2019-03-05T01:51:15.441Z,986.45
2019-03-05T01:52:15.432Z,986.45
2019-03-05T01:53:15.419Z,986.42
2019-03-05T01:54:15.410Z,986.43
2019-03-05T01:55:15.430Z,986.43
2019-03-05T01:56:15.403Z,986.44
2019-03-05T01:57:15.388Z,986.42
2019-03-05T01:58:15.371Z,986.46
2019-03-05T01:59:15.352Z,986.42
2019-03-05T02:00:15.388Z,986.44
2019-03-05T02:01:15.331Z,986.45
2019-03-05T02:02:15.352Z,986.49
2019-03-05T02:03:15.309Z,986.54
2019-03-05T02:04:15.310Z,986.52
2019-03-05T02:05:15.313Z,986.47
2019-03-05T02:06:15.275Z,986.49
2019-03-05T02:07:15.288Z,986.50
2019-03-05T02:08:15.286Z,986.46
2019-03-05T02:09:15.243Z,986.48
2019-03-05T02:10:15.255Z,986.48
2019-03-05T02:11:15.220Z,986.46
2019-03-05T02:12:15.209Z,986.41
2019-03-05T02:13:15.200Z,986.48
2019-03-05T02:14:15.198Z,986.45
2019-03-05T02:15:15.180Z,986.47
2019-03-05T02:16:15.186Z,986.48
2019-03-05T02:17:15.153Z,986.48
2019-03-05T02:18:15.142Z,986.48
2019-03-05T02:19:15.131Z,986.50
2019-03-05T02:20:15.145Z,986.42
2019-03-05T02:21:15.132Z,986.44
2019-03-05T02:22:15.098Z,986.41
2019-03-05T02:23:15.087Z,986.46
2019-03-05T02:24:15.075Z,986.43
2019-03-05T02:25:15.066Z,986.41
2019-03-05T02:26:15.093Z,986.42
2019-03-05T02:27:15.045Z,986.40
2019-03-05T02:28:15.032Z,986.43
2019-03-05T02:29:15.022Z,986.42
2019-03-05T02:30:15.011Z,986.39
2019-03-05T02:31:15.025Z,986.43
2019-03-05T02:32:15.002Z,986.44
2019-03-05T02:33:14.981Z,986.43
2019-03-05T02:34:14.965Z,986.46
2019-03-05T02:35:14.957Z,986.42
2019-03-05T02:36:14.966Z,986.39
2019-03-05T02:37:14.934Z,986.39
2019-03-05T02:38:14.943Z,986.41
2019-03-05T02:39:14.913Z,986.44
2019-03-05T02:40:14.902Z,986.43
2019-03-05T02:41:14.912Z,986.46
2019-03-05T02:42:14.880Z,986.49
2019-03-05T02:43:14.872Z,986.50
2019-03-05T02:44:14.885Z,986.53
2019-03-05T02:45:14.847Z,986.54
2019-03-05T02:46:14.840Z,986.58
2019-03-05T02:47:14.849Z,986.57
2019-03-05T02:48:14.812Z,986.56
2019-03-05T02:49:14.802Z,986.60
2019-03-05T02:50:14.821Z,986.59
2019-03-05T02:51:14.787Z,986.63
2019-03-05T02:52:14.793Z,986.62
2019-03-05T02:53:14.758Z,986.60
2019-03-05T02:54:14.746Z,986.57
2019-03-05T02:55:14.735Z,986.53
2019-03-05T02:56:14.745Z,986.55
2019-03-05T02:57:14.737Z,986.53
2019-03-05T02:58:14.705Z,986.54
2019-03-05T02:59:14.709Z,986.52
2019-03-05T03:00:14.682Z,986.49
2019-03-05T03:01:14.673Z,986.49
2019-03-05T03:02:14.711Z,986.49
2019-03-05T03:03:14.647Z,986.40
2019-03-05T03:04:14.636Z,986.45
2019-03-05T03:05:14.627Z,986.43
2019-03-05T03:06:14.614Z,986.43
2019-03-05T03:07:14.630Z,986.43
2019-03-05T03:08:14.634Z,986.43
2019-03-05T03:09:14.582Z,986.43
2019-03-05T03:10:14.572Z,986.36
2019-03-05T03:11:14.563Z,986.38
2019-03-05T03:12:14.551Z,986.37
2019-03-05T03:13:14.561Z,986.39
2019-03-05T03:14:14.545Z,986.38
2019-03-05T03:15:14.517Z,986.36
2019-03-05T03:16:14.506Z,986.36
2019-03-05T03:17:14.499Z,986.42
2019-03-05T03:18:14.506Z,986.39
2019-03-05T03:19:14.550Z,986.38
2019-03-05T03:20:14.516Z,986.37
2019-03-05T03:21:14.456Z,986.42
2019-03-05T03:22:14.441Z,986.37
2019-03-05T03:23:14.545Z,986.45
2019-03-05T03:24:14.428Z,986.44
2019-03-05T03:25:14.410Z,986.40
2019-03-05T03:26:14.406Z,986.44
2019-03-05T03:27:14.385Z,986.45
2019-03-05T03:28:14.402Z,986.42
2019-03-05T03:29:14.365Z,986.41
2019-03-05T03:30:14.371Z,986.42
2019-03-05T03:31:14.550Z,986.45
2019-03-05T03:32:14.339Z,986.43
2019-03-05T03:33:14.375Z,986.42
2019-03-05T03:34:14.311Z,986.44
2019-03-05T03:35:14.306Z,986.41
2019-03-05T03:36:14.288Z,986.35
2019-03-05T03:37:14.277Z,986.42
2019-03-05T03:38:14.366Z,986.43
2019-03-05T03:39:14.259Z,986.45
2019-03-05T03:40:14.245Z,986.40
2019-03-05T03:41:14.236Z,986.42
2019-03-05T03:42:14.222Z,986.44
2019-03-05T03:43:14.238Z,986.45
2019-03-05T03:44:14.214Z,986.49
2019-03-05T03:45:14.192Z,986.49
2019-03-05T03:46:14.179Z,986.51
2019-03-05T03:47:14.173Z,986.50
2019-03-05T03:48:14.188Z,986.48
2019-03-05T03:49:14.150Z,986.50
2019-03-05T03:50:14.149Z,986.43
2019-03-05T03:51:14.127Z,986.51
2019-03-05T03:52:14.113Z,986.47
2019-03-05T03:53:14.125Z,986.49
2019-03-05T03:54:14.096Z,986.49
2019-03-05T03:55:14.080Z,986.43
2019-03-05T03:56:14.083Z,986.48
2019-03-05T03:57:14.057Z,986.50
2019-03-05T03:58:14.070Z,986.50
2019-03-05T03:59:14.041Z,986.45
2019-03-05T04:00:14.051Z,986.50
2019-03-05T04:01:14.028Z,986.47
2019-03-05T04:02:14.011Z,986.50
2019-03-05T04:03:13.994Z,986.53
2019-03-05T04:04:14.007Z,986.46
2019-03-05T04:05:13.972Z,986.47
2019-03-05T04:06:13.960Z,986.42
2019-03-05T04:07:13.951Z,986.42
2019-03-05T04:08:13.941Z,986.44
2019-03-05T04:09:13.949Z,986.36
2019-03-05T04:10:13.918Z,986.37
2019-03-05T04:11:13.910Z,986.43
2019-03-05T04:12:13.894Z,986.38
2019-03-05T04:13:13.883Z,986.30
2019-03-05T04:14:13.933Z,986.36
2019-03-05T04:15:13.858Z,986.39
2019-03-05T04:16:13.853Z,986.37
2019-03-05T04:17:13.838Z,986.36
2019-03-05T04:18:13.827Z,986.38
2019-03-05T04:19:13.838Z,986.41
2019-03-05T04:20:13.819Z,986.34
2019-03-05T04:21:13.793Z,986.35
2019-03-05T04:22:13.780Z,986.33
2019-03-05T04:23:13.777Z,986.35
2019-03-05T04:24:13.796Z,986.35
2019-03-05T04:25:13.750Z,986.35
2019-03-05T04:26:13.747Z,986.33
2019-03-05T04:27:13.725Z,986.35
2019-03-05T04:28:13.716Z,986.37
2019-03-05T04:29:13.732Z,986.37
2019-03-05T04:30:13.706Z,986.40
2019-03-05T04:31:13.682Z,986.38
2019-03-05T04:32:13.720Z,986.41
2019-03-05T04:33:13.669Z,986.41
2019-03-05T04:34:13.681Z,986.47
2019-03-05T04:35:13.638Z,986.49
2019-03-05T04:36:13.628Z,986.52
2019-03-05T04:37:13.622Z,986.58
2019-03-05T04:38:13.615Z,986.54
2019-03-05T04:39:13.619Z,986.58
2019-03-05T04:40:13.589Z,986.54
2019-03-05T04:41:13.571Z,986.56
2019-03-05T04:42:13.588Z,986.60
2019-03-05T04:43:13.548Z,986.56
2019-03-05T04:44:13.563Z,986.59
2019-03-05T04:45:13.551Z,986.59
2019-03-05T04:46:13.518Z,986.63
2019-03-05T04:47:13.505Z,986.61
2019-03-05T04:48:13.496Z,986.60
2019-03-05T04:49:13.484Z,986.61
2019-03-05T04:50:13.572Z,986.59
2019-03-05T04:51:13.462Z,986.55
2019-03-05T04:52:13.450Z,986.56
2019-03-05T04:53:13.441Z,986.59
2019-03-05T04:54:13.430Z,986.57
2019-03-05T04:55:13.442Z,986.53
2019-03-05T04:56:13.425Z,986.54
2019-03-05T04:57:13.405Z,986.60
2019-03-05T04:58:13.386Z,986.54
2019-03-05T04:59:13.381Z,986.55
2019-03-05T05:00:13.389Z,986.52
2019-03-05T05:01:13.352Z,986.51
2019-03-05T05:02:13.357Z,986.51
2019-03-05T05:03:13.331Z,986.54
2019-03-05T05:04:13.324Z,986.53
2019-03-05T05:05:13.334Z,986.56
2019-03-05T05:06:13.298Z,986.57
2019-03-05T05:07:13.297Z,986.54
2019-03-05T05:08:13.293Z,986.59
2019-03-05T05:09:13.266Z,986.57
2019-03-05T05:10:13.284Z,986.53
2019-03-05T05:11:13.245Z,986.54
2019-03-05T05:12:13.233Z,986.53
2019-03-05T05:13:13.226Z,986.53
2019-03-05T05:14:13.229Z,986.55
2019-03-05T05:15:13.226Z,986.56
2019-03-05T05:16:13.195Z,986.56
2019-03-05T05:17:13.179Z,986.55
2019-03-05T05:18:13.173Z,986.51
2019-03-05T05:19:13.158Z,986.54
2019-03-05T05:20:13.196Z,986.51
2019-03-05T05:21:13.137Z,986.52
2019-03-05T05:22:13.130Z,986.53
2019-03-05T05:23:13.116Z,986.53
2019-03-05T05:24:13.101Z,986.56
2019-03-05T05:25:13.114Z,986.51
2019-03-05T05:26:13.100Z,986.56
2019-03-05T05:27:13.092Z,986.55
2019-03-05T05:28:13.057Z,986.55
2019-03-05T05:29:13.050Z,986.53
2019-03-05T05:30:13.051Z,986.50
2019-03-05T05:31:13.047Z,986.47
2019-03-05T05:32:13.027Z,986.51
2019-03-05T05:33:13.008Z,986.46
2019-03-05T05:34:12.992Z,986.48
2019-03-05T05:35:12.993Z,986.47
2019-03-05T05:36:12.992Z,986.44
2019-03-05T05:37:12.960Z,986.45
2019-03-05T05:38:12.967Z,986.54
2019-03-05T05:39:12.938Z,986.50
2019-03-05T05:40:12.927Z,986.50
2019-03-05T05:41:12.939Z,986.42
2019-03-05T05:42:12.905Z,986.45
2019-03-05T05:43:12.892Z,986.41
2019-03-05T05:44:12.939Z,986.42
2019-03-05T05:45:12.871Z,986.44
2019-03-05T05:46:12.882Z,986.36
2019-03-05T05:47:12.847Z,986.45
2019-03-05T05:48:12.842Z,986.42
2019-03-05T05:49:12.830Z,986.39
2019-03-05T05:50:12.833Z,986.42
2019-03-05T05:51:12.827Z,986.45
2019-03-05T05:52:12.790Z,986.44
2019-03-05T05:53:12.783Z,986.51
2019-03-05T05:54:12.773Z,986.54
2019-03-05T05:55:12.764Z,986.51
2019-03-05T05:56:12.785Z,986.52
2019-03-05T05:57:12.736Z,986.56
2019-03-05T05:58:12.731Z,986.52
2019-03-05T05:59:12.724Z,986.50
2019-03-05T06:00:12.705Z,986.55
2019-03-05T06:01:12.717Z,986.48
2019-03-05T06:02:12.708Z,986.56
2019-03-05T06:03:12.678Z,986.59
2019-03-05T06:04:12.659Z,986.52
2019-03-05T06:05:12.649Z,986.53
2019-03-05T06:06:12.672Z,986.53
2019-03-05T06:07:12.639Z,986.57
2019-03-05T06:08:12.629Z,986.57
2019-03-05T06:09:12.613Z,986.59
2019-03-05T06:10:12.598Z,986.56
2019-03-05T06:11:12.615Z,986.49
2019-03-05T06:12:12.579Z,986.61
2019-03-05T06:13:12.583Z,986.60
2019-03-05T06:14:12.635Z,986.58
2019-03-05T06:15:12.537Z,986.58
2019-03-05T06:16:12.535Z,986.63
2019-03-05T06:17:12.538Z,986.58
2019-03-05T06:18:12.505Z,986.69
2019-03-05T06:19:12.501Z,986.68
2019-03-05T06:20:12.495Z,986.68
2019-03-05T06:21:12.520Z,986.66
2019-03-05T06:22:12.497Z,986.68
2019-03-05T06:23:12.456Z,986.70
2019-03-05T06:24:12.507Z,986.67
2019-03-05T06:25:12.427Z,986.68
2019-03-05T06:26:12.422Z,986.68
2019-03-05T06:27:12.441Z,986.70
2019-03-05T06:28:12.393Z,986.70
2019-03-05T06:29:12.384Z,986.73
2019-03-05T06:30:12.370Z,986.72
2019-03-05T06:31:12.359Z,986.67
2019-03-05T06:32:12.372Z,986.74
2019-03-05T06:33:12.373Z,986.67
2019-03-05T06:34:12.329Z,986.67
2019-03-05T06:35:12.323Z,986.65
2019-03-05T06:36:12.304Z,986.65
2019-03-05T06:37:12.320Z,986.57
2019-03-05T06:38:12.282Z,986.59
2019-03-05T06:39:12.300Z,986.60
2019-03-05T06:40:12.266Z,986.60
2019-03-05T06:41:12.251Z,986.56
2019-03-05T06:42:12.261Z,986.57
2019-03-05T06:43:12.226Z,986.54
2019-03-05T06:44:12.224Z,986.56
2019-03-05T06:45:12.223Z,986.58
2019-03-05T06:46:12.202Z,986.55
2019-03-05T06:47:12.206Z,986.55
2019-03-05T06:48:12.171Z,986.57
2019-03-05T06:49:12.164Z,986.57
2019-03-05T06:50:12.150Z,986.55
2019-03-05T06:51:12.159Z,986.60
2019-03-05T06:52:12.151Z,986.57
2019-03-05T06:53:12.117Z,986.56
2019-03-05T06:54:12.106Z,986.55
2019-03-05T06:55:12.099Z,986.53
2019-03-05T06:56:12.089Z,986.52
2019-03-05T06:57:12.101Z,986.52
2019-03-05T06:58:12.139Z,986.49
2019-03-05T06:59:12.076Z,986.50
2019-03-05T07:00:12.039Z,986.53
2019-03-05T07:01:12.036Z,986.50
2019-03-05T07:02:12.021Z,986.54
2019-03-05T07:03:12.040Z,986.54
2019-03-05T07:04:11.998Z,986.58
2019-03-05T07:05:11.985Z,986.54
2019-03-05T07:06:11.977Z,986.51
2019-03-05T07:07:11.966Z,986.52
2019-03-05T07:08:12.006Z,986.48
2019-03-05T07:09:11.958Z,986.53
2019-03-05T07:10:11.929Z,986.60
2019-03-05T07:11:11.927Z,986.59
2019-03-05T07:12:11.919Z,986.57
2019-03-05T07:13:11.920Z,986.61
2019-03-05T07:14:11.887Z,986.60
2019-03-05T07:15:11.884Z,986.59
2019-03-05T07:16:11.865Z,986.62
2019-03-05T07:17:11.858Z,986.68
2019-03-05T07:18:11.867Z,986.60
2019-03-05T07:19:11.836Z,986.66
2019-03-05T07:20:11.829Z,986.64
2019-03-05T07:21:11.823Z,986.61
2019-03-05T07:22:11.799Z,986.72
2019-03-05T07:23:11.812Z,986.72
2019-03-05T07:24:11.781Z,986.75
2019-03-05T07:25:11.768Z,986.83
2019-03-05T07:26:11.759Z,986.78
2019-03-05T07:27:11.752Z,986.76
2019-03-05T07:28:11.756Z,986.73
2019-03-05T07:29:11.725Z,986.78
2019-03-05T07:30:11.736Z,986.84
2019-03-05T07:31:11.705Z,986.88
2019-03-05T07:32:11.694Z,986.80
2019-03-05T07:33:11.699Z,986.92
2019-03-05T07:34:11.689Z,986.93
2019-03-05T07:35:11.658Z,987.00
2019-03-05T07:36:11.647Z,986.95
2019-03-05T07:37:11.635Z,987.06
2019-03-05T07:38:11.624Z,987.07
2019-03-05T07:39:11.651Z,987.00
2019-03-05T07:40:11.600Z,986.97
2019-03-05T07:41:11.593Z,987.04
2019-03-05T07:42:11.583Z,987.04
2019-03-05T07:43:11.571Z,987.13
2019-03-05T07:44:11.582Z,987.08
2019-03-05T07:45:11.557Z,987.08
2019-03-05T07:46:11.537Z,987.09
2019-03-05T07:47:11.527Z,987.07
2019-03-05T07:48:11.519Z,987.11
2019-03-05T07:49:11.527Z,987.07
2019-03-05T07:50:11.489Z,987.16
2019-03-05T07:51:11.494Z,987.14
2019-03-05T07:52:11.467Z,987.11
2019-03-05T07:53:11.457Z,987.09
2019-03-05T07:54:11.474Z,987.15
2019-03-05T07:55:13.875Z,987.11
2019-03-05T07:56:11.428Z,987.16
2019-03-05T07:57:11.423Z,987.14
2019-03-05T07:58:11.400Z,987.17
2019-03-05T07:59:11.411Z,987.10
2019-03-05T08:00:11.379Z,987.08
2019-03-05T08:01:21.787Z,987.11
2019-03-05T08:02:12.361Z,987.11
2019-03-05T08:03:11.359Z,987.13
2019-03-05T08:04:11.363Z,987.15
2019-03-05T08:05:11.321Z,987.08
2019-03-05T08:06:11.309Z,987.14
2019-03-05T08:07:11.298Z,987.18
2019-03-05T08:08:11.290Z,987.21
2019-03-05T08:09:11.310Z,987.20
2019-03-05T08:10:11.267Z,987.21
2019-03-05T08:11:11.276Z,987.17
2019-03-05T08:12:11.246Z,987.28
2019-03-05T08:13:11.231Z,987.26
2019-03-05T08:14:11.222Z,987.29
2019-03-05T08:15:11.249Z,987.31
2019-03-05T08:16:11.197Z,987.33
2019-03-05T08:17:11.189Z,987.32
2019-03-05T08:18:11.176Z,987.39
2019-03-05T08:19:11.170Z,987.33
2019-03-05T08:20:11.176Z,987.43
2019-03-05T08:21:11.170Z,987.44
2019-03-05T08:22:11.129Z,987.47
2019-03-05T08:23:11.120Z,987.50
2019-03-05T08:24:11.109Z,987.43
2019-03-05T08:25:11.117Z,987.49
2019-03-05T08:26:11.084Z,987.53
2019-03-05T08:27:11.090Z,987.61
2019-03-05T08:28:11.061Z,987.62
2019-03-05T08:29:11.048Z,987.64
2019-03-05T08:30:14.607Z,987.69
2019-03-05T08:31:11.027Z,987.68
2019-03-05T08:32:11.040Z,987.67
2019-03-05T08:33:11.018Z,987.68
2019-03-05T08:34:10.995Z,987.69
2019-03-05T08:35:10.983Z,987.74
2019-03-05T08:36:10.993Z,987.72
2019-03-05T08:37:13.315Z,987.65
2019-03-05T08:38:10.949Z,987.68
2019-03-05T08:39:10.943Z,987.64
2019-03-05T08:40:10.925Z,987.67
2019-03-05T08:41:10.939Z,987.66
2019-03-05T08:42:10.903Z,987.73
2019-03-05T08:43:10.892Z,987.67
2019-03-05T08:44:10.881Z,987.70
2019-03-05T08:45:10.884Z,987.76
2019-03-05T08:46:10.881Z,987.86
2019-03-05T08:47:10.847Z,987.78
2019-03-05T08:48:10.837Z,987.78
2019-03-05T08:49:10.826Z,987.87
2019-03-05T08:50:10.815Z,987.87
2019-03-05T08:51:10.841Z,987.90
2019-03-05T08:52:10.795Z,987.91
2019-03-05T08:53:10.780Z,987.90
2019-03-05T08:54:10.769Z,987.88
2019-03-05T08:55:10.757Z,987.92
2019-03-05T08:56:10.770Z,987.84
2019-03-05T08:57:10.763Z,987.89
2019-03-05T08:58:10.727Z,987.92
2019-03-05T08:59:10.713Z,987.92
2019-03-05T09:00:10.703Z,987.88
2019-03-05T09:01:10.716Z,987.96
2019-03-05T09:02:10.681Z,987.98
2019-03-05T09:03:10.679Z,988.02
2019-03-05T09:04:10.657Z,988.05
2019-03-05T09:05:10.644Z,988.00
2019-03-05T09:06:10.655Z,988.04
2019-03-05T09:07:10.625Z,988.00
2019-03-05T09:08:10.617Z,987.96
2019-03-05T09:09:10.630Z,988.00
2019-03-05T09:10:10.591Z,988.03
2019-03-05T09:11:10.611Z,988.06
2019-03-05T09:12:10.570Z,988.09
2019-03-05T09:13:10.556Z,988.11
2019-03-05T09:14:10.546Z,988.05
2019-03-05T09:15:10.548Z,988.08
2019-03-05T09:16:10.546Z,988.07
2019-03-05T09:17:10.511Z,988.13
2019-03-05T09:18:10.505Z,988.10
2019-03-05T09:19:10.496Z,988.08
2019-03-05T09:20:10.477Z,988.15
2019-03-05T09:21:10.508Z,988.19
2019-03-05T09:22:10.456Z,988.18
2019-03-05T09:23:10.468Z,988.22
2019-03-05T09:24:10.439Z,988.17
2019-03-05T09:25:10.422Z,988.25
2019-03-05T09:26:10.511Z,988.23
2019-03-05T09:27:10.445Z,988.21
2019-03-05T09:28:10.391Z,988.24
2019-03-05T09:29:10.377Z,988.23
2019-03-05T09:30:10.368Z,988.17
2019-03-05T09:31:10.366Z,988.15
2019-03-05T09:32:10.373Z,988.16
2019-03-05T09:33:10.352Z,988.17
2019-03-05T09:34:10.387Z,988.18
2019-03-05T09:35:10.311Z,988.21
2019-03-05T09:36:10.299Z,988.20
2019-03-05T09:37:10.311Z,988.23
2019-03-05T09:38:10.277Z,988.23
2019-03-05T09:39:10.283Z,988.25
2019-03-05T09:40:10.253Z,988.29
2019-03-05T09:41:10.244Z,988.27
2019-03-05T09:42:10.253Z,988.36
2019-03-05T09:43:10.222Z,988.36
2019-03-05T09:44:10.209Z,988.29
2019-03-05T09:45:10.214Z,988.32
2019-03-05T09:46:10.206Z,988.29
2019-03-05T09:47:10.200Z,988.28
2019-03-05T09:48:10.162Z,988.27
2019-03-05T09:49:10.158Z,988.28
2019-03-05T09:50:10.144Z,988.35
2019-03-05T09:51:10.145Z,988.36
2019-03-05T09:52:10.141Z,988.38
2019-03-05T09:53:10.109Z,988.35
2019-03-05T09:54:10.099Z,988.37
2019-03-05T09:55:10.084Z,988.42
2019-03-05T09:56:10.076Z,988.32
2019-03-05T09:57:10.091Z,988.35
2019-03-05T09:58:10.057Z,988.30
2019-03-05T09:59:10.042Z,988.30
2019-03-05T10:00:10.031Z,988.28
2019-03-05T10:01:10.025Z,988.30
2019-03-05T10:02:10.094Z,988.27
2019-03-05T10:03:10.010Z,988.29
2019-03-05T10:04:09.993Z,988.25
2019-03-05T10:05:09.977Z,988.30
2019-03-05T10:06:09.966Z,988.31
2019-03-05T10:07:18.600Z,988.29
2019-03-05T10:08:10.947Z,988.29
2019-03-05T10:09:09.939Z,988.32
2019-03-05T10:10:09.983Z,988.33
2019-03-05T10:11:09.910Z,988.33
2019-03-05T10:12:09.921Z,988.36
2019-03-05T10:13:09.889Z,988.36
2019-03-05T10:14:09.888Z,988.39
2019-03-05T10:15:09.883Z,988.36
2019-03-05T10:16:09.859Z,988.36
2019-03-05T10:17:09.867Z,988.39
2019-03-05T10:18:13.022Z,988.38
2019-03-05T10:19:09.844Z,988.36
2019-03-05T10:20:09.809Z,988.37
2019-03-05T10:21:11.797Z,988.39
2019-03-05T10:22:09.789Z,988.39
2019-03-05T10:23:09.796Z,988.37
2019-03-05T10:24:10.906Z,988.39
2019-03-05T10:25:09.758Z,988.41
2019-03-05T10:26:10.693Z,988.41
2019-03-05T10:27:09.741Z,988.48
2019-03-05T10:28:09.747Z,988.47
2019-03-05T10:29:09.709Z,988.46
2019-03-05T10:30:09.697Z,988.52
2019-03-05T10:31:09.687Z,988.46
2019-03-05T10:32:09.675Z,988.45
2019-03-05T10:33:09.714Z,988.48
2019-03-05T10:34:09.653Z,988.45
2019-03-05T10:35:09.642Z,988.47
2019-03-05T10:36:09.633Z,988.53
2019-03-05T10:37:15.783Z,988.54
2019-03-05T10:38:10.688Z,988.55
2019-03-05T10:39:09.611Z,988.55
2019-03-05T10:40:09.596Z,988.58
2019-03-05T10:41:09.574Z,988.58
2019-03-05T10:42:09.565Z,988.55
2019-03-05T10:43:09.574Z,988.54
2019-03-05T10:44:09.542Z,988.50
2019-03-05T10:45:09.529Z,988.47
2019-03-05T10:46:09.544Z,988.52
2019-03-05T10:47:09.518Z,988.47
2019-03-05T10:48:09.528Z,988.56
2019-03-05T10:49:09.485Z,988.51
2019-03-05T10:50:15.276Z,988.54
2019-03-05T10:51:10.466Z,988.54
2019-03-05T10:52:09.452Z,988.53
2019-03-05T10:53:09.515Z,988.53
2019-03-05T10:54:09.434Z,988.49
2019-03-05T10:55:09.418Z,988.53
2019-03-05T10:56:09.418Z,988.53
2019-03-05T10:57:09.403Z,988.49
2019-03-05T10:58:09.407Z,988.57
2019-03-05T10:59:09.453Z,988.49
2019-03-05T11:00:09.363Z,988.45
2019-03-05T11:01:09.351Z,988.46
2019-03-05T11:02:09.345Z,988.47
2019-03-05T11:03:09.351Z,988.54
2019-03-05T11:04:09.320Z,988.60
2019-03-05T11:05:09.319Z,988.54
2019-03-05T11:06:09.298Z,988.57
2019-03-05T11:07:09.286Z,988.60
2019-03-05T11:08:09.298Z,988.62
2019-03-05T11:09:09.263Z,988.66
2019-03-05T11:10:09.253Z,988.65
2019-03-05T11:11:13.557Z,988.63
2019-03-05T11:12:09.229Z,988.57
2019-03-05T11:13:09.246Z,988.62
2019-03-05T11:14:09.211Z,988.60
2019-03-05T11:15:09.195Z,988.63
2019-03-05T11:16:09.189Z,988.57
2019-03-05T11:17:09.212Z,988.60
2019-03-05T11:18:09.187Z,988.58
2019-03-05T11:19:09.154Z,988.64
2019-03-05T11:20:09.140Z,988.71
2019-03-05T11:21:09.128Z,988.68
2019-03-05T11:22:09.141Z,988.70
2019-03-05T11:23:11.521Z,988.68
2019-03-05T11:24:09.118Z,988.67
2019-03-05T11:25:09.084Z,988.76
2019-03-05T11:26:09.076Z,988.73
2019-03-05T11:27:09.064Z,988.73
2019-03-05T11:28:09.054Z,988.70
2019-03-05T11:29:09.088Z,988.69
2019-03-05T11:30:09.028Z,988.70
2019-03-05T11:31:09.019Z,988.73
2019-03-05T11:32:09.006Z,988.65
2019-03-05T11:33:08.997Z,988.67
2019-03-05T11:34:09.007Z,988.66
2019-03-05T11:35:08.996Z,988.71
2019-03-05T11:36:08.963Z,988.70
2019-03-05T11:37:08.952Z,988.70
2019-03-05T11:38:08.942Z,988.72
2019-03-05T11:39:08.953Z,988.70
2019-03-05T11:40:09.250Z,988.75
2019-03-05T11:41:08.921Z,988.75
2019-03-05T11:42:08.897Z,988.76
2019-03-05T11:43:08.882Z,988.71
2019-03-05T11:44:08.902Z,988.73
2019-03-05T11:45:11.617Z,988.74
2019-03-05T11:46:08.851Z,988.73
2019-03-05T11:47:08.857Z,988.78
2019-03-05T11:48:08.830Z,988.76
2019-03-05T11:49:08.839Z,988.73
2019-03-05T11:50:08.807Z,988.76
2019-03-05T11:51:08.795Z,988.70
2019-03-05T11:52:08.787Z,988.77
2019-03-05T11:53:08.814Z,988.70
2019-03-05T11:54:08.783Z,988.69
2019-03-05T11:55:08.749Z,988.64
2019-03-05T11:56:08.742Z,988.72
2019-03-05T11:57:08.729Z,988.61
2019-03-05T11:58:08.717Z,988.62
2019-03-05T11:59:08.755Z,988.64
2019-03-05T12:00:08.698Z,988.72
2019-03-05T12:01:08.683Z,988.67
2019-03-05T12:02:09.887Z,988.81
2019-03-05T12:03:08.659Z,988.74
2019-03-05T12:04:08.678Z,988.83
2019-03-05T12:05:08.639Z,988.77
2019-03-05T12:06:08.655Z,988.81
2019-03-05T12:07:08.619Z,988.79
2019-03-05T12:08:08.626Z,988.80
2019-03-05T12:09:08.592Z,988.84
2019-03-05T12:10:08.606Z,988.84
2019-03-05T12:11:08.574Z,988.86
2019-03-05T12:12:08.588Z,988.85
2019-03-05T12:13:08.549Z,988.83
2019-03-05T12:14:08.550Z,988.82
2019-03-05T12:15:08.559Z,988.85
2019-03-05T12:16:08.515Z,988.86
2019-03-05T12:17:08.510Z,988.89
2019-03-05T12:18:08.504Z,988.89
2019-03-05T12:19:08.485Z,988.89
2019-03-05T12:20:08.503Z,988.90
2019-03-05T12:21:08.464Z,988.89
2019-03-05T12:22:08.447Z,988.92
2019-03-05T12:23:10.312Z,988.88
2019-03-05T12:24:08.441Z,988.90
2019-03-05T12:25:08.439Z,988.91
2019-03-05T12:26:08.403Z,988.95
2019-03-05T12:27:08.395Z,988.95
2019-03-05T12:28:10.693Z,988.94